Terminal Aerodrome Forecast
Issued by NWS Pocatello, ID

Home | Current Version | Previous Version | Text Only | Print | Product List | Glossary On
Versions: 1 2 3 4 5 6 7 8 9 10 11 12 13 14 15 16 17 18 19 20 21 22
000
FTUS45 KPIH 250300 AAB
TAFIDA
TAF AMD
KIDA 250319Z 2503/2524 17008KT 1SM -SN BR BKN012 OVC020
     FM250500 23014G24KT 1SM -SN BLSN BR BKN003 OVC012
     FM251000 35016G24KT 3SM -SN BLSN BR SCT002 OVC010
     FM251900 02012G20KT P6SM VCSH SCT012 OVC050=

USA.gov is the U.S. government's official web portal to all federal, state and local government web resources and services.